Terminal Aerodrome Forecast
Issued by NWS

Home | Current Version | Previous Version | Graphics & Text | Print | Product List | Glossary On
Versions: 1 2 3 4 5 6 7 8 9 10 11 12 13 14 15 16
000
FTUS43 KMPX 301700
TAFAXN
TAF
KAXN 301720Z 3018/3118 34006KT P6SM SCT008 BKN015 BKN040
     FM302100 VRB02KT P6SM SCT015 BKN025
     FM302230 12004KT P6SM SCT015 SCT040
     FM310900 15012KT P6SM FEW002 SCT015 BKN110
     FM311500 15015G22KT P6SM VCSH FEW020 BKN050=

USA.gov is the U.S. government's official web portal to all federal, state and local government web resources and services.